Aérodrome :
LOGIN :

S'inscrire | Disclaimer

   EN    FR    IT 

 










Légende :    VFR   VFR Marginal   IFR   IFR Intensif   IFR Très Intensif
Visi : 
Plafond : 
>= 8 km
>= 3000ft
5 à 8 km
1000 à 3000 ft
1500m à 5 km
500 à 1000 ft
800 à 1500m
200 à 500 ft
< 800m
< 200 ft
Symboles :   Orages  Brouillard  Fortes neiges  Fortes précipitations  Vent > 20 kt
SIGMETs :   Divers  Orages  Givrage  Turbulence  Onde Orograph.  Cendres Volcan.






- Altitude de l'aérodrome : 291 ft
- Code IATA : ORY


LFPO - Paris-Orly

DERNIER METAR :
  • 301600Z 17007KT 130V210 9999 FEW013TCU SCT015 BKN170 16/13 Q1015 TEMPO 4000 SHRA BKN012 SCT030CB

METARs EXPIRÉS :
  • 301530Z 18007KT 150V210 9999 SCT015 FEW016TCU SCT033 BKN170 16/13 Q1015 TEMPO 4000 SHRA BKN012 SCT030CB
  • 301500Z 18007KT 140V220 9999 BKN015 BKN033 16/13 Q1015 TEMPO 4000 SHRA BKN012 SCT030CB
  • 301430Z 17008KT 140V200 9999 BKN014 BKN040 16/14 Q1015 TEMPO BKN012
  • 301400Z 16007KT 9999 BKN012 BKN020 16/14 Q1015 TEMPO BKN012
  • 301330Z 18007KT 150V210 9999 BKN011 BKN040 15/14 Q1015 TEMPO BKN012

TAF AMD TAF LFPO
Valide du 30 à 13h jusqu'au 01 à 18h UTC


301326Z 3013/0118 24005KT 9999 BKN030
TEMPO 3013/3015 BKN012
PROB40
TEMPO 3015/3020 24015G25KT 4000 SHRA BKN012 SCT030CB
PROB40
TEMPO 0101/0106 3000 BR
PROB30
TEMPO 0102/0105 0600 FG
BECMG 0112/0114 CAVOK
ATIS : +33 1 49 75 65 80



MET'MAP, la Météo Aéronautique d'un coup d'oeil ! - Copyright ORBIFLY Décembre 2007 - Disclaimer

ORBIFLY MET'MAP TEAM :

Programmation & Développement : Alexandra Zaïnal
Sur une idée originale de : Baudouin d'Aumeries
Soutien technique & logistique : Manuel Goepfert
Assistance : Marc-Olivier Méhu




SOURCES & CREDITS :

   NOAA